sensor_id;sensor_type;location;lat;lon;timestamp;P1;durP1;ratioP1;P2;durP2;ratioP2
5912;SDS011;2982;42.684;23.356;2023-09-18T00:01:45;17.27;;;15.48;;
5912;SDS011;2982;42.684;23.356;2023-09-18T00:04:13;19.88;;;16.00;;
5912;SDS011;2982;42.684;23.356;2023-09-18T00:06:39;18.77;;;16.67;;
5912;SDS011;2982;42.684;23.356;2023-09-18T00:09:04;19.60;;;16.38;;
5912;SDS011;2982;42.684;23.356;2023-09-18T00:11:32;23.27;;;17.80;;
5912;SDS011;2982;42.684;23.356;2023-09-18T00:13:57;19.65;;;17.42;;
5912;SDS011;2982;42.684;23.356;2023-09-18T00:16:25;24.02;;;21.17;;
5912;SDS011;2982;42.684;23.356;2023-09-18T00:18:55;25.42;;;19.70;;
5912;SDS011;2982;42.684;23.356;2023-09-18T00:21:21;20.35;;;17.02;;
5912;SDS011;2982;42.684;23.356;2023-09-18T00:23:46;20.05;;;17.95;;
5912;SDS011;2982;42.684;23.356;2023-09-18T00:26:12;18.38;;;16.58;;
5912;SDS011;2982;42.684;23.356;2023-09-18T00:28:37;20.63;;;17.70;;
5912;SDS011;2982;42.684;23.356;2023-09-18T00:31:02;22.65;;;18.48;;
5912;SDS011;2982;42.684;23.356;2023-09-18T00:33:28;23.63;;;18.83;;
5912;SDS011;2982;42.684;23.356;2023-09-18T00:35:53;20.40;;;16.98;;
5912;SDS011;2982;42.684;23.356;2023-09-18T00:38:19;21.85;;;19.52;;
5912;SDS011;2982;42.684;23.356;2023-09-18T00:40:44;21.05;;;18.23;;
5912;SDS011;2982;42.684;23.356;2023-09-18T00:43:10;22.10;;;19.48;;
5912;SDS011;2982;42.684;23.356;2023-09-18T00:45:39;22.98;;;19.80;;
5912;SDS011;2982;42.684;23.356;2023-09-18T00:48:07;24.42;;;17.80;;
5912;SDS011;2982;42.684;23.356;2023-09-18T00:50:32;21.85;;;18.33;;
5912;SDS011;2982;42.684;23.356;2023-09-18T00:52:59;21.30;;;18.38;;
5912;SDS011;2982;42.684;23.356;2023-09-18T00:55:28;21.88;;;19.58;;
5912;SDS011;2982;42.684;23.356;2023-09-18T00:57:55;19.67;;;17.48;;
5912;SDS011;2982;42.684;23.356;2023-09-18T01:00:21;18.80;;;15.95;;
5912;SDS011;2982;42.684;23.356;2023-09-18T01:02:47;19.02;;;15.90;;
5912;SDS011;2982;42.684;23.356;2023-09-18T01:05:12;18.02;;;16.25;;
5912;SDS011;2982;42.684;23.356;2023-09-18T01:07:38;19.90;;;15.25;;
5912;SDS011;2982;42.684;23.356;2023-09-18T01:10:03;18.23;;;15.40;;
5912;SDS011;2982;42.684;23.356;2023-09-18T01:17:47;14.40;;;13.10;;
5912;SDS011;2982;42.684;23.356;2023-09-18T01:20:13;14.00;;;12.68;;
5912;SDS011;2982;42.684;23.356;2023-09-18T01:22:39;13.50;;;11.30;;
5912;SDS011;2982;42.684;23.356;2023-09-18T01:25:04;13.18;;;11.20;;
5912;SDS011;2982;42.684;23.356;2023-09-18T01:27:30;12.05;;;10.95;;
5912;SDS011;2982;42.684;23.356;2023-09-18T01:29:56;11.77;;;10.63;;
5912;SDS011;2982;42.684;23.356;2023-09-18T01:32:25;13.50;;;11.38;;
5912;SDS011;2982;42.684;23.356;2023-09-18T01:34:54;12.05;;;10.85;;
5912;SDS011;2982;42.684;23.356;2023-09-18T01:37:25;11.23;;;10.35;;
5912;SDS011;2982;42.684;23.356;2023-09-18T01:39:52;12.02;;;10.73;;
5912;SDS011;2982;42.684;23.356;2023-09-18T01:42:18;12.55;;;11.35;;
5912;SDS011;2982;42.684;23.356;2023-09-18T01:44:44;13.50;;;11.43;;
5912;SDS011;2982;42.684;23.356;2023-09-18T01:47:13;12.80;;;11.60;;
5912;SDS011;2982;42.684;23.356;2023-09-18T01:49:41;14.18;;;10.55;;
5912;SDS011;2982;42.684;23.356;2023-09-18T01:52:06;14.88;;;11.43;;
5912;SDS011;2982;42.684;23.356;2023-09-18T01:54:33;11.82;;;10.73;;
5912;SDS011;2982;42.684;23.356;2023-09-18T01:56:59;12.45;;;11.27;;
5912;SDS011;2982;42.684;23.356;2023-09-18T01:59:25;14.93;;;11.55;;
5912;SDS011;2982;42.684;23.356;2023-09-18T02:01:54;12.95;;;11.95;;
5912;SDS011;2982;42.684;23.356;2023-09-18T02:04:20;11.75;;;10.75;;
5912;SDS011;2982;42.684;23.356;2023-09-18T02:06:46;15.32;;;11.98;;
5912;SDS011;2982;42.684;23.356;2023-09-18T02:09:13;14.45;;;13.02;;
5912;SDS011;2982;42.684;23.356;2023-09-18T02:11:42;12.75;;;11.65;;
5912;SDS011;2982;42.684;23.356;2023-09-18T02:14:08;13.80;;;12.48;;
5912;SDS011;2982;42.684;23.356;2023-09-18T02:16:35;16.13;;;13.75;;
5912;SDS011;2982;42.684;23.356;2023-09-18T02:19:02;14.05;;;11.77;;
5912;SDS011;2982;42.684;23.356;2023-09-18T02:21:30;11.75;;;10.73;;
5912;SDS011;2982;42.684;23.356;2023-09-18T02:23:58;14.35;;;12.88;;
5912;SDS011;2982;42.684;23.356;2023-09-18T02:26:24;13.27;;;11.98;;
5912;SDS011;2982;42.684;23.356;2023-09-18T02:28:51;11.52;;;10.50;;
5912;SDS011;2982;42.684;23.356;2023-09-18T02:31:17;12.07;;;10.93;;
5912;SDS011;2982;42.684;23.356;2023-09-18T02:33:45;12.23;;;10.95;;
5912;SDS011;2982;42.684;23.356;2023-09-18T02:36:11;11.65;;;10.48;;
5912;SDS011;2982;42.684;23.356;2023-09-18T02:38:36;12.23;;;11.13;;
5912;SDS011;2982;42.684;23.356;2023-09-18T02:41:01;11.05;;;10.05;;
5912;SDS011;2982;42.684;23.356;2023-09-18T02:43:27;10.10;;;9.10;;
5912;SDS011;2982;42.684;23.356;2023-09-18T02:45:52;10.32;;;9.45;;
5912;SDS011;2982;42.684;23.356;2023-09-18T02:48:18;12.88;;;10.05;;
5912;SDS011;2982;42.684;23.356;2023-09-18T02:50:44;10.57;;;9.57;;
5912;SDS011;2982;42.684;23.356;2023-09-18T02:53:20;11.13;;;8.95;;
5912;SDS011;2982;42.684;23.356;2023-09-18T02:55:46;10.60;;;9.63;;
5912;SDS011;2982;42.684;23.356;2023-09-18T02:58:13;10.48;;;9.60;;
5912;SDS011;2982;42.684;23.356;2023-09-18T03:00:42;9.52;;;8.73;;
5912;SDS011;2982;42.684;23.356;2023-09-18T03:03:08;10.13;;;9.23;;
5912;SDS011;2982;42.684;23.356;2023-09-18T03:05:34;10.23;;;9.25;;
5912;SDS011;2982;42.684;23.356;2023-09-18T03:08:00;10.40;;;9.50;;
5912;SDS011;2982;42.684;23.356;2023-09-18T03:10:25;11.07;;;10.07;;
5912;SDS011;2982;42.684;23.356;2023-09-18T03:12:50;10.85;;;9.95;;
5912;SDS011;2982;42.684;23.356;2023-09-18T03:15:16;12.52;;;10.57;;
5912;SDS011;2982;42.684;23.356;2023-09-18T03:17:44;11.80;;;10.85;;
5912;SDS011;2982;42.684;23.356;2023-09-18T03:20:09;11.77;;;10.63;;
5912;SDS011;2982;42.684;23.356;2023-09-18T03:22:38;12.68;;;10.60;;
5912;SDS011;2982;42.684;23.356;2023-09-18T03:25:03;11.13;;;9.88;;
5912;SDS011;2982;42.684;23.356;2023-09-18T03:27:31;12.25;;;10.95;;
5912;SDS011;2982;42.684;23.356;2023-09-18T03:29:57;12.68;;;11.65;;
5912;SDS011;2982;42.684;23.356;2023-09-18T03:32:23;12.40;;;11.20;;
5912;SDS011;2982;42.684;23.356;2023-09-18T03:34:52;18.27;;;13.43;;
5912;SDS011;2982;42.684;23.356;2023-09-18T03:37:18;12.43;;;11.02;;
5912;SDS011;2982;42.684;23.356;2023-09-18T03:40:03;12.65;;;11.48;;
5912;SDS011;2982;42.684;23.356;2023-09-18T03:42:30;14.52;;;12.48;;
5912;SDS011;2982;42.684;23.356;2023-09-18T03:44:55;14.27;;;12.80;;
5912;SDS011;2982;42.684;23.356;2023-09-18T03:47:20;15.55;;;13.20;;
5912;SDS011;2982;42.684;23.356;2023-09-18T03:49:46;17.92;;;12.68;;
5912;SDS011;2982;42.684;23.356;2023-09-18T03:52:12;15.23;;;13.32;;
5912;SDS011;2982;42.684;23.356;2023-09-18T03:55:01;17.40;;;12.95;;
5912;SDS011;2982;42.684;23.356;2023-09-18T03:57:26;15.98;;;13.52;;
5912;SDS011;2982;42.684;23.356;2023-09-18T03:59:54;15.75;;;14.13;;
5912;SDS011;2982;42.684;23.356;2023-09-18T04:02:21;15.18;;;13.75;;
5912;SDS011;2982;42.684;23.356;2023-09-18T04:04:49;16.45;;;14.75;;
5912;SDS011;2982;42.684;23.356;2023-09-18T04:07:14;19.92;;;13.20;;
5912;SDS011;2982;42.684;23.356;2023-09-18T04:09:42;18.15;;;14.88;;
5912;SDS011;2982;42.684;23.356;2023-09-18T04:12:08;15.93;;;14.32;;
5912;SDS011;2982;42.684;23.356;2023-09-18T04:14:36;16.58;;;14.43;;
5912;SDS011;2982;42.684;23.356;2023-09-18T04:17:11;17.52;;;15.40;;
5912;SDS011;2982;42.684;23.356;2023-09-18T04:20:09;19.23;;;16.30;;
5912;SDS011;2982;42.684;23.356;2023-09-18T04:22:35;16.13;;;14.00;;
5912;SDS011;2982;42.684;23.356;2023-09-18T04:25:00;21.17;;;15.23;;
5912;SDS011;2982;42.684;23.356;2023-09-18T04:27:29;16.50;;;14.20;;
5912;SDS011;2982;42.684;23.356;2023-09-18T04:29:54;16.77;;;14.18;;
5912;SDS011;2982;42.684;23.356;2023-09-18T04:35:06;15.75;;;14.05;;
5912;SDS011;2982;42.684;23.356;2023-09-18T04:37:55;16.25;;;13.05;;
5912;SDS011;2982;42.684;23.356;2023-09-18T04:40:25;15.57;;;11.80;;
5912;SDS011;2982;42.684;23.356;2023-09-18T04:42:53;13.82;;;12.02;;
5912;SDS011;2982;42.684;23.356;2023-09-18T04:45:26;18.40;;;12.73;;
5912;SDS011;2982;42.684;23.356;2023-09-18T04:47:56;16.55;;;12.70;;
5912;SDS011;2982;42.684;23.356;2023-09-18T04:50:24;18.60;;;13.88;;
5912;SDS011;2982;42.684;23.356;2023-09-18T04:52:54;17.40;;;13.73;;
5912;SDS011;2982;42.684;23.356;2023-09-18T04:55:31;15.52;;;13.60;;
5912;SDS011;2982;42.684;23.356;2023-09-18T04:57:57;18.15;;;14.30;;
5912;SDS011;2982;42.684;23.356;2023-09-18T05:00:27;20.42;;;14.82;;
5912;SDS011;2982;42.684;23.356;2023-09-18T05:02:53;16.63;;;12.95;;
5912;SDS011;2982;42.684;23.356;2023-09-18T05:05:18;14.27;;;12.88;;
5912;SDS011;2982;42.684;23.356;2023-09-18T05:07:48;14.07;;;12.73;;
5912;SDS011;2982;42.684;23.356;2023-09-18T05:10:14;15.50;;;14.07;;
5912;SDS011;2982;42.684;23.356;2023-09-18T05:13:01;23.27;;;14.70;;
5912;SDS011;2982;42.684;23.356;2023-09-18T05:15:48;12.27;;;10.77;;
5912;SDS011;2982;42.684;23.356;2023-09-18T05:18:16;12.93;;;11.60;;
5912;SDS011;2982;42.684;23.356;2023-09-18T05:20:44;12.45;;;11.05;;
5912;SDS011;2982;42.684;23.356;2023-09-18T05:23:10;14.95;;;11.35;;
5912;SDS011;2982;42.684;23.356;2023-09-18T05:25:37;12.82;;;11.32;;
5912;SDS011;2982;42.684;23.356;2023-09-18T05:28:04;13.82;;;10.80;;
5912;SDS011;2982;42.684;23.356;2023-09-18T05:30:33;13.10;;;11.77;;
5912;SDS011;2982;42.684;23.356;2023-09-18T05:33:01;14.80;;;11.27;;
5912;SDS011;2982;42.684;23.356;2023-09-18T05:35:48;12.32;;;10.82;;
5912;SDS011;2982;42.684;23.356;2023-09-18T05:38:56;12.68;;;11.13;;
5912;SDS011;2982;42.684;23.356;2023-09-18T05:41:27;12.30;;;11.07;;
5912;SDS011;2982;42.684;23.356;2023-09-18T05:44:01;12.40;;;11.18;;
5912;SDS011;2982;42.684;23.356;2023-09-18T05:46:51;16.27;;;10.35;;
5912;SDS011;2982;42.684;23.356;2023-09-18T05:49:16;12.85;;;11.50;;
5912;SDS011;2982;42.684;23.356;2023-09-18T05:51:42;11.48;;;10.38;;
5912;SDS011;2982;42.684;23.356;2023-09-18T05:54:13;11.82;;;10.60;;
5912;SDS011;2982;42.684;23.356;2023-09-18T05:56:59;10.50;;;9.65;;
5912;SDS011;2982;42.684;23.356;2023-09-18T05:59:25;12.20;;;10.45;;
5912;SDS011;2982;42.684;23.356;2023-09-18T06:02:28;13.13;;;9.98;;
5912;SDS011;2982;42.684;23.356;2023-09-18T06:04:57;11.85;;;10.02;;
5912;SDS011;2982;42.684;23.356;2023-09-18T06:07:27;12.35;;;11.10;;
5912;SDS011;2982;42.684;23.356;2023-09-18T06:10:14;19.38;;;12.27;;
5912;SDS011;2982;42.684;23.356;2023-09-18T06:12:50;9.43;;;8.52;;
5912;SDS011;2982;42.684;23.356;2023-09-18T06:15:16;10.10;;;9.02;;
5912;SDS011;2982;42.684;23.356;2023-09-18T06:17:44;10.32;;;9.30;;
5912;SDS011;2982;42.684;23.356;2023-09-18T06:22:48;11.20;;;8.82;;
5912;SDS011;2982;42.684;23.356;2023-09-18T06:28:26;18.27;;;10.40;;
5912;SDS011;2982;42.684;23.356;2023-09-18T06:31:12;10.20;;;8.77;;
5912;SDS011;2982;42.684;23.356;2023-09-18T06:33:47;10.50;;;9.50;;
5912;SDS011;2982;42.684;23.356;2023-09-18T06:36:17;9.90;;;8.98;;
5912;SDS011;2982;42.684;23.356;2023-09-18T06:39:03;10.75;;;9.07;;
5912;SDS011;2982;42.684;23.356;2023-09-18T06:41:30;12.50;;;10.68;;
5912;SDS011;2982;42.684;23.356;2023-09-18T06:43:56;12.85;;;10.07;;
5912;SDS011;2982;42.684;23.356;2023-09-18T06:46:44;10.40;;;9.38;;
5912;SDS011;2982;42.684;23.356;2023-09-18T06:49:31;10.82;;;9.75;;
5912;SDS011;2982;42.684;23.356;2023-09-18T06:52:20;16.08;;;10.60;;
5912;SDS011;2982;42.684;23.356;2023-09-18T06:54:51;14.70;;;11.02;;
5912;SDS011;2982;42.684;23.356;2023-09-18T06:57:18;13.25;;;10.77;;
5912;SDS011;2982;42.684;23.356;2023-09-18T06:59:44;13.50;;;9.90;;
5912;SDS011;2982;42.684;23.356;2023-09-18T07:02:12;9.25;;;8.55;;
5912;SDS011;2982;42.684;23.356;2023-09-18T07:05:02;12.27;;;9.63;;
5912;SDS011;2982;42.684;23.356;2023-09-18T07:07:28;14.75;;;11.00;;
5912;SDS011;2982;42.684;23.356;2023-09-18T07:10:01;14.68;;;9.48;;
5912;SDS011;2982;42.684;23.356;2023-09-18T07:12:36;13.23;;;11.85;;
5912;SDS011;2982;42.684;23.356;2023-09-18T07:15:03;15.00;;;11.68;;
5912;SDS011;2982;42.684;23.356;2023-09-18T07:17:29;12.18;;;11.00;;
5912;SDS011;2982;42.684;23.356;2023-09-18T07:20:11;13.25;;;10.18;;
5912;SDS011;2982;42.684;23.356;2023-09-18T07:22:38;10.82;;;9.77;;
5912;SDS011;2982;42.684;23.356;2023-09-18T07:25:04;11.73;;;10.23;;
5912;SDS011;2982;42.684;23.356;2023-09-18T07:27:38;15.05;;;11.15;;
5912;SDS011;2982;42.684;23.356;2023-09-18T07:30:05;12.85;;;11.52;;
5912;SDS011;2982;42.684;23.356;2023-09-18T07:32:38;11.05;;;10.05;;
5912;SDS011;2982;42.684;23.356;2023-09-18T07:40:34;10.85;;;9.82;;
5912;SDS011;2982;42.684;23.356;2023-09-18T07:43:44;11.63;;;10.00;;
5912;SDS011;2982;42.684;23.356;2023-09-18T07:46:55;14.38;;;10.38;;
5912;SDS011;2982;42.684;23.356;2023-09-18T07:49:31;19.52;;;11.05;;
5912;SDS011;2982;42.684;23.356;2023-09-18T07:52:22;10.43;;;9.50;;
5912;SDS011;2982;42.684;23.356;2023-09-18T07:54:57;9.40;;;8.50;;
5912;SDS011;2982;42.684;23.356;2023-09-18T07:58:08;10.77;;;9.77;;
5912;SDS011;2982;42.684;23.356;2023-09-18T08:00:44;11.57;;;10.30;;
5912;SDS011;2982;42.684;23.356;2023-09-18T08:03:12;13.25;;;9.60;;
5912;SDS011;2982;42.684;23.356;2023-09-18T08:05:42;10.73;;;9.88;;
5912;SDS011;2982;42.684;23.356;2023-09-18T08:08:28;14.38;;;10.00;;
5912;SDS011;2982;42.684;23.356;2023-09-18T08:11:15;9.35;;;8.65;;
5912;SDS011;2982;42.684;23.356;2023-09-18T08:14:05;12.10;;;10.93;;
5912;SDS011;2982;42.684;23.356;2023-09-18T08:16:55;9.20;;;8.30;;
5912;SDS011;2982;42.684;23.356;2023-09-18T08:20:02;9.85;;;7.88;;
5912;SDS011;2982;42.684;23.356;2023-09-18T08:22:30;9.10;;;8.30;;
5912;SDS011;2982;42.684;23.356;2023-09-18T08:24:56;10.20;;;9.40;;
5912;SDS011;2982;42.684;23.356;2023-09-18T08:27:25;9.63;;;8.32;;
5912;SDS011;2982;42.684;23.356;2023-09-18T08:30:12;10.38;;;9.32;;
5912;SDS011;2982;42.684;23.356;2023-09-18T08:32:55;11.23;;;9.65;;
5912;SDS011;2982;42.684;23.356;2023-09-18T08:35:54;12.38;;;10.25;;
5912;SDS011;2982;42.684;23.356;2023-09-18T08:38:22;9.25;;;8.45;;
5912;SDS011;2982;42.684;23.356;2023-09-18T08:41:09;10.65;;;8.95;;
5912;SDS011;2982;42.684;23.356;2023-09-18T08:43:40;9.63;;;8.63;;
5912;SDS011;2982;42.684;23.356;2023-09-18T08:46:22;12.00;;;8.85;;
5912;SDS011;2982;42.684;23.356;2023-09-18T08:48:48;10.05;;;9.10;;
5912;SDS011;2982;42.684;23.356;2023-09-18T08:51:32;9.70;;;8.90;;
5912;SDS011;2982;42.684;23.356;2023-09-18T08:53:59;12.57;;;9.38;;
5912;SDS011;2982;42.684;23.356;2023-09-18T08:56:32;10.23;;;8.25;;
5912;SDS011;2982;42.684;23.356;2023-09-18T08:59:21;13.20;;;8.85;;
5912;SDS011;2982;42.684;23.356;2023-09-18T09:01:52;11.63;;;8.98;;
5912;SDS011;2982;42.684;23.356;2023-09-18T09:04:38;9.68;;;8.93;;
5912;SDS011;2982;42.684;23.356;2023-09-18T09:07:06;9.35;;;8.45;;
5912;SDS011;2982;42.684;23.356;2023-09-18T09:09:51;9.20;;;8.40;;
5912;SDS011;2982;42.684;23.356;2023-09-18T09:12:59;8.93;;;7.85;;
5912;SDS011;2982;42.684;23.356;2023-09-18T09:15:12;8.57;;;7.88;;
5912;SDS011;2982;42.684;23.356;2023-09-18T09:17:38;10.15;;;8.05;;
5912;SDS011;2982;42.684;23.356;2023-09-18T09:20:11;9.82;;;8.43;;
5912;SDS011;2982;42.684;23.356;2023-09-18T09:22:41;9.27;;;7.03;;
5912;SDS011;2982;42.684;23.356;2023-09-18T09:25:24;21.77;;;9.55;;
5912;SDS011;2982;42.684;23.356;2023-09-18T09:27:50;8.18;;;7.47;;
5912;SDS011;2982;42.684;23.356;2023-09-18T09:30:23;8.75;;;7.53;;
5912;SDS011;2982;42.684;23.356;2023-09-18T09:32:51;7.65;;;7.03;;
5912;SDS011;2982;42.684;23.356;2023-09-18T09:35:21;7.25;;;6.60;;
5912;SDS011;2982;42.684;23.356;2023-09-18T09:38:08;7.28;;;6.75;;
5912;SDS011;2982;42.684;23.356;2023-09-18T09:40:54;8.45;;;7.82;;
5912;SDS011;2982;42.684;23.356;2023-09-18T09:43:19;10.40;;;7.82;;
5912;SDS011;2982;42.684;23.356;2023-09-18T09:45:56;12.77;;;7.35;;
5912;SDS011;2982;42.684;23.356;2023-09-18T09:49:04;22.63;;;7.85;;
5912;SDS011;2982;42.684;23.356;2023-09-18T09:51:32;7.57;;;6.97;;
5912;SDS011;2982;42.684;23.356;2023-09-18T09:53:58;6.63;;;6.10;;
5912;SDS011;2982;42.684;23.356;2023-09-18T09:59:15;7.30;;;6.68;;
5912;SDS011;2982;42.684;23.356;2023-09-18T10:02:00;5.72;;;5.15;;
5912;SDS011;2982;42.684;23.356;2023-09-18T10:07:41;6.75;;;6.25;;
5912;SDS011;2982;42.684;23.356;2023-09-18T10:10:07;6.68;;;6.05;;
5912;SDS011;2982;42.684;23.356;2023-09-18T10:12:56;7.25;;;6.28;;
5912;SDS011;2982;42.684;23.356;2023-09-18T10:15:52;7.20;;;6.70;;
5912;SDS011;2982;42.684;23.356;2023-09-18T10:18:34;9.75;;;7.20;;
5912;SDS011;2982;42.684;23.356;2023-09-18T10:21:26;9.43;;;8.10;;
5912;SDS011;2982;42.684;23.356;2023-09-18T10:24:25;7.28;;;6.10;;
5912;SDS011;2982;42.684;23.356;2023-09-18T10:29:38;7.65;;;5.85;;
5912;SDS011;2982;42.684;23.356;2023-09-18T10:32:25;6.53;;;5.88;;
5912;SDS011;2982;42.684;23.356;2023-09-18T10:34:53;6.18;;;5.65;;
5912;SDS011;2982;42.684;23.356;2023-09-18T10:37:20;12.70;;;7.93;;
5912;SDS011;2982;42.684;23.356;2023-09-18T10:39:47;4.68;;;4.32;;
5912;SDS011;2982;42.684;23.356;2023-09-18T10:42:32;4.63;;;4.32;;
5912;SDS011;2982;42.684;23.356;2023-09-18T10:45:03;5.10;;;4.70;;
5912;SDS011;2982;42.684;23.356;2023-09-18T10:47:29;6.75;;;4.32;;
5912;SDS011;2982;42.684;23.356;2023-09-18T10:49:57;3.95;;;3.70;;
5912;SDS011;2982;42.684;23.356;2023-09-18T10:52:37;4.07;;;3.78;;
5912;SDS011;2982;42.684;23.356;2023-09-18T10:55:11;4.13;;;3.80;;
5912;SDS011;2982;42.684;23.356;2023-09-18T10:57:51;3.65;;;3.35;;
5912;SDS011;2982;42.684;23.356;2023-09-18T11:00:25;4.28;;;3.97;;
5912;SDS011;2982;42.684;23.356;2023-09-18T11:03:14;8.32;;;4.43;;
5912;SDS011;2982;42.684;23.356;2023-09-18T11:06:11;4.55;;;4.10;;
5912;SDS011;2982;42.684;23.356;2023-09-18T11:08:45;4.55;;;4.20;;
5912;SDS011;2982;42.684;23.356;2023-09-18T11:11:25;3.85;;;3.58;;
5912;SDS011;2982;42.684;23.356;2023-09-18T11:13:52;5.97;;;5.10;;
5912;SDS011;2982;42.684;23.356;2023-09-18T11:21:29;4.18;;;3.65;;
5912;SDS011;2982;42.684;23.356;2023-09-18T11:27:04;4.05;;;3.63;;
5912;SDS011;2982;42.684;23.356;2023-09-18T11:29:33;4.75;;;4.00;;
5912;SDS011;2982;42.684;23.356;2023-09-18T11:32:02;3.72;;;3.42;;
5912;SDS011;2982;42.684;23.356;2023-09-18T11:34:30;5.28;;;4.55;;
5912;SDS011;2982;42.684;23.356;2023-09-18T11:37:22;4.38;;;4.03;;
5912;SDS011;2982;42.684;23.356;2023-09-18T11:39:55;3.70;;;3.40;;
5912;SDS011;2982;42.684;23.356;2023-09-18T11:42:21;3.92;;;3.58;;
5912;SDS011;2982;42.684;23.356;2023-09-18T11:44:57;3.75;;;3.30;;
5912;SDS011;2982;42.684;23.356;2023-09-18T11:47:26;3.88;;;3.42;;
5912;SDS011;2982;42.684;23.356;2023-09-18T11:49:59;3.67;;;3.38;;
5912;SDS011;2982;42.684;23.356;2023-09-18T11:52:27;3.38;;;3.13;;
5912;SDS011;2982;42.684;23.356;2023-09-18T11:54:56;4.65;;;3.80;;
5912;SDS011;2982;42.684;23.356;2023-09-18T11:57:28;4.05;;;3.75;;
5912;SDS011;2982;42.684;23.356;2023-09-18T12:00:03;5.18;;;3.40;;
5912;SDS011;2982;42.684;23.356;2023-09-18T12:02:29;3.58;;;3.28;;
5912;SDS011;2982;42.684;23.356;2023-09-18T12:15:12;4.22;;;3.92;;
5912;SDS011;2982;42.684;23.356;2023-09-18T12:17:55;4.20;;;3.63;;
5912;SDS011;2982;42.684;23.356;2023-09-18T12:20:20;3.08;;;2.88;;
5912;SDS011;2982;42.684;23.356;2023-09-18T12:22:49;3.60;;;3.03;;
5912;SDS011;2982;42.684;23.356;2023-09-18T12:25:15;3.65;;;3.42;;
5912;SDS011;2982;42.684;23.356;2023-09-18T12:27:41;4.80;;;3.20;;
5912;SDS011;2982;42.684;23.356;2023-09-18T12:30:19;4.00;;;3.63;;
5912;SDS011;2982;42.684;23.356;2023-09-18T12:32:48;4.00;;;3.70;;
5912;SDS011;2982;42.684;23.356;2023-09-18T12:35:17;4.60;;;4.25;;
5912;SDS011;2982;42.684;23.356;2023-09-18T12:37:43;3.53;;;3.25;;
5912;SDS011;2982;42.684;23.356;2023-09-18T12:42:55;4.40;;;3.55;;
5912;SDS011;2982;42.684;23.356;2023-09-18T12:48:21;4.13;;;3.83;;
5912;SDS011;2982;42.684;23.356;2023-09-18T12:50:52;3.75;;;3.25;;
5912;SDS011;2982;42.684;23.356;2023-09-18T12:53:27;4.55;;;4.15;;
5912;SDS011;2982;42.684;23.356;2023-09-18T12:55:53;4.15;;;3.75;;
5912;SDS011;2982;42.684;23.356;2023-09-18T12:58:19;3.90;;;3.70;;
5912;SDS011;2982;42.684;23.356;2023-09-18T13:00:46;5.60;;;4.57;;
5912;SDS011;2982;42.684;23.356;2023-09-18T13:03:13;5.93;;;4.05;;
5912;SDS011;2982;42.684;23.356;2023-09-18T13:05:42;4.10;;;3.70;;
5912;SDS011;2982;42.684;23.356;2023-09-18T13:08:07;6.88;;;3.80;;
5912;SDS011;2982;42.684;23.356;2023-09-18T13:10:45;3.33;;;3.13;;
5912;SDS011;2982;42.684;23.356;2023-09-18T13:13:17;3.30;;;3.10;;
5912;SDS011;2982;42.684;23.356;2023-09-18T13:15:48;3.70;;;3.30;;
5912;SDS011;2982;42.684;23.356;2023-09-18T13:18:27;4.75;;;3.22;;
5912;SDS011;2982;42.684;23.356;2023-09-18T13:20:55;5.03;;;3.08;;
5912;SDS011;2982;42.684;23.356;2023-09-18T13:23:28;4.03;;;3.72;;
5912;SDS011;2982;42.684;23.356;2023-09-18T13:26:05;3.97;;;3.67;;
5912;SDS011;2982;42.684;23.356;2023-09-18T13:28:32;4.57;;;3.72;;
5912;SDS011;2982;42.684;23.356;2023-09-18T13:31:03;5.00;;;3.88;;
5912;SDS011;2982;42.684;23.356;2023-09-18T13:36:27;7.43;;;4.13;;
5912;SDS011;2982;42.684;23.356;2023-09-18T13:38:53;3.35;;;3.15;;
5912;SDS011;2982;42.684;23.356;2023-09-18T13:41:39;7.72;;;4.47;;
5912;SDS011;2982;42.684;23.356;2023-09-18T13:44:05;2.85;;;2.70;;
5912;SDS011;2982;42.684;23.356;2023-09-18T13:46:38;3.63;;;3.33;;
5912;SDS011;2982;42.684;23.356;2023-09-18T13:49:07;9.63;;;3.78;;
5912;SDS011;2982;42.684;23.356;2023-09-18T13:51:55;4.72;;;3.70;;
5912;SDS011;2982;42.684;23.356;2023-09-18T13:54:26;3.83;;;3.53;;
5912;SDS011;2982;42.684;23.356;2023-09-18T13:57:11;6.07;;;5.53;;
5912;SDS011;2982;42.684;23.356;2023-09-18T13:59:38;4.88;;;3.55;;
5912;SDS011;2982;42.684;23.356;2023-09-18T14:02:04;4.53;;;4.13;;
5912;SDS011;2982;42.684;23.356;2023-09-18T14:04:29;4.72;;;4.30;;
5912;SDS011;2982;42.684;23.356;2023-09-18T14:06:56;4.38;;;4.05;;
5912;SDS011;2982;42.684;23.356;2023-09-18T14:09:21;3.40;;;3.20;;
5912;SDS011;2982;42.684;23.356;2023-09-18T14:12:08;6.45;;;3.22;;
5912;SDS011;2982;42.684;23.356;2023-09-18T14:14:34;4.03;;;3.45;;
5912;SDS011;2982;42.684;23.356;2023-09-18T14:17:01;3.72;;;3.42;;
5912;SDS011;2982;42.684;23.356;2023-09-18T14:19:48;4.88;;;3.20;;
5912;SDS011;2982;42.684;23.356;2023-09-18T14:22:35;3.67;;;2.92;;
5912;SDS011;2982;42.684;23.356;2023-09-18T14:25:41;3.42;;;3.17;;
5912;SDS011;2982;42.684;23.356;2023-09-18T14:28:07;3.90;;;3.30;;
5912;SDS011;2982;42.684;23.356;2023-09-18T14:30:36;3.95;;;3.63;;
5912;SDS011;2982;42.684;23.356;2023-09-18T14:33:23;5.10;;;4.20;;
5912;SDS011;2982;42.684;23.356;2023-09-18T14:36:05;5.38;;;3.42;;
5912;SDS011;2982;42.684;23.356;2023-09-18T14:39:14;7.20;;;4.35;;
5912;SDS011;2982;42.684;23.356;2023-09-18T14:41:57;6.22;;;3.10;;
5912;SDS011;2982;42.684;23.356;2023-09-18T14:44:23;5.78;;;4.13;;
5912;SDS011;2982;42.684;23.356;2023-09-18T14:46:49;6.07;;;5.07;;
5912;SDS011;2982;42.684;23.356;2023-09-18T14:49:20;4.75;;;4.25;;
5912;SDS011;2982;42.684;23.356;2023-09-18T14:51:48;3.78;;;3.47;;
5912;SDS011;2982;42.684;23.356;2023-09-18T14:54:18;3.97;;;3.67;;
5912;SDS011;2982;42.684;23.356;2023-09-18T14:56:55;3.70;;;3.30;;
5912;SDS011;2982;42.684;23.356;2023-09-18T14:59:47;5.60;;;3.38;;
5912;SDS011;2982;42.684;23.356;2023-09-18T15:02:21;5.18;;;4.15;;
5912;SDS011;2982;42.684;23.356;2023-09-18T15:04:48;3.72;;;3.35;;
5912;SDS011;2982;42.684;23.356;2023-09-18T15:07:16;3.35;;;3.10;;
5912;SDS011;2982;42.684;23.356;2023-09-18T15:09:43;3.70;;;3.40;;
5912;SDS011;2982;42.684;23.356;2023-09-18T15:12:10;3.97;;;2.88;;
5912;SDS011;2982;42.684;23.356;2023-09-18T15:14:36;3.33;;;2.85;;
5912;SDS011;2982;42.684;23.356;2023-09-18T15:17:02;3.63;;;3.33;;
5912;SDS011;2982;42.684;23.356;2023-09-18T15:19:30;2.88;;;2.67;;
5912;SDS011;2982;42.684;23.356;2023-09-18T15:21:55;4.07;;;3.67;;
5912;SDS011;2982;42.684;23.356;2023-09-18T15:24:23;3.45;;;3.10;;
5912;SDS011;2982;42.684;23.356;2023-09-18T15:26:49;5.93;;;4.10;;
5912;SDS011;2982;42.684;23.356;2023-09-18T15:29:20;4.50;;;3.80;;
5912;SDS011;2982;42.684;23.356;2023-09-18T15:31:46;3.83;;;3.40;;
5912;SDS011;2982;42.684;23.356;2023-09-18T15:34:18;3.83;;;3.60;;
5912;SDS011;2982;42.684;23.356;2023-09-18T15:36:44;3.80;;;3.60;;
5912;SDS011;2982;42.684;23.356;2023-09-18T15:39:13;4.93;;;4.53;;
5912;SDS011;2982;42.684;23.356;2023-09-18T15:41:41;3.35;;;3.10;;
5912;SDS011;2982;42.684;23.356;2023-09-18T15:44:26;3.20;;;3.00;;
5912;SDS011;2982;42.684;23.356;2023-09-18T15:47:14;3.55;;;3.35;;
5912;SDS011;2982;42.684;23.356;2023-09-18T15:50:00;4.97;;;2.97;;
5912;SDS011;2982;42.684;23.356;2023-09-18T15:52:27;3.60;;;3.33;;
5912;SDS011;2982;42.684;23.356;2023-09-18T15:54:52;4.22;;;3.70;;
5912;SDS011;2982;42.684;23.356;2023-09-18T15:57:31;6.28;;;3.90;;
5912;SDS011;2982;42.684;23.356;2023-09-18T16:00:22;3.40;;;3.17;;
5912;SDS011;2982;42.684;23.356;2023-09-18T16:02:47;4.28;;;3.80;;
5912;SDS011;2982;42.684;23.356;2023-09-18T16:05:39;3.78;;;3.58;;
5912;SDS011;2982;42.684;23.356;2023-09-18T16:08:08;3.72;;;3.47;;
5912;SDS011;2982;42.684;23.356;2023-09-18T16:10:37;4.75;;;3.65;;
5912;SDS011;2982;42.684;23.356;2023-09-18T16:13:05;3.50;;;3.20;;
5912;SDS011;2982;42.684;23.356;2023-09-18T16:31:42;3.17;;;2.92;;